Mount Hulda, Missouri
Current Conditions -  °F | °C
As of 12:53 AM on Monday 22 Dec 2014 (Local Time) from KDMO Reporting Station
Overcast Overcast  
Wind Chill: 36°   Ceiling: 3700
Heat Index: 43°   Visibility: 10mi
Dew Point: 36°   Wind: 13mph
Humidity: 76%   Direction: 150°SSE
Pressure: 29.78"   Gusts: NA
Location:  38.4446°N, 93.178°W
Report Text: KDMO 220653Z AUTO 15011KT 10SM BKN037 OVC044 06/02 A2978 RMK AO2 SLP089 T00610022
Loading
Personal Weather Stations






























Interactive Weather Map New forecast layout! Learn more

10-Day Weather Forecast

Advertisements
Track Severe Weather on mobile